TQQ201 OERK-OMDB
Flight info
| Callsign | TQQ201 |
|---|---|
| Flight time | 1h 28m |
| Altitude | 29000 |
| Route | RAPMA Y214 KUTNA M440 KATIT/N0477F330 DCT PEKEM M628 RIGIL G783 ASPED Q308 KIPOK/N0475F340 Q568 IMPED |
| Aircraft | B738/M-SDE2E3FGHIRWXY/LB1 |
Departure
| Time | 2026-05-07 12:52 |
|---|---|
| Airport | King Khalid International Airport (OERK) |
Arrival
| Time | 2026-05-07 14:20 |
|---|---|
| Airport | Dubai International Airport (OMDB) |
| Time | Latitude | Longitude | Altitude | Speed | Heading |
|---|---|---|---|---|---|
| 2026-05-07 11:57 | 24.96417 | 46.70212 | 2045 ft | 0 kts | 260° |
| 2026-05-07 12:42 | 24.96420 | 46.70227 | 2032 ft | 3 kts | 261° |
| 2026-05-07 12:42 | 24.96423 | 46.70249 | 2030 ft | 3 kts | 261° |
| 2026-05-07 12:43 | 24.96426 | 46.70271 | 2030 ft | 3 kts | 262° |
| 2026-05-07 12:43 | 24.96429 | 46.70293 | 2031 ft | 3 kts | 265° |
| 2026-05-07 12:43 | 24.96429 | 46.70315 | 2031 ft | 3 kts | 275° |
| 2026-05-07 12:43 | 24.96426 | 46.70336 | 2031 ft | 3 kts | 303° |
| 2026-05-07 12:44 | 24.96419 | 46.70345 | 2031 ft | 1 kts | 329° |
| 2026-05-07 12:47 | 24.96421 | 46.70344 | 2031 ft | 1 kts | 329° |
| 2026-05-07 12:47 | 24.96439 | 46.70332 | 2037 ft | 6 kts | 329° |
| 2026-05-07 12:47 | 24.96489 | 46.70301 | 2033 ft | 11 kts | 330° |
| 2026-05-07 12:47 | 24.96569 | 46.70251 | 2033 ft | 15 kts | 330° |
| 2026-05-07 12:48 | 24.96667 | 46.70190 | 2032 ft | 16 kts | 330° |
| 2026-05-07 12:48 | 24.96763 | 46.70130 | 2031 ft | 16 kts | 330° |
| 2026-05-07 12:48 | 24.96855 | 46.70072 | 2035 ft | 15 kts | 339° |
| 2026-05-07 12:48 | 24.96919 | 46.70136 | 2035 ft | 13 kts | 62° |
| 2026-05-07 12:49 | 24.96965 | 46.70220 | 2034 ft | 13 kts | 58° |
| 2026-05-07 12:49 | 24.97033 | 46.70266 | 2031 ft | 12 kts | 353° |
| 2026-05-07 12:49 | 24.97109 | 46.70224 | 2030 ft | 12 kts | 331° |
| 2026-05-07 12:49 | 24.97181 | 46.70180 | 2039 ft | 12 kts | 330° |
| 2026-05-07 12:50 | 24.97252 | 46.70135 | 2032 ft | 12 kts | 330° |
| 2026-05-07 12:50 | 24.97325 | 46.70088 | 2032 ft | 13 kts | 329° |
| 2026-05-07 12:50 | 24.97408 | 46.70067 | 2037 ft | 13 kts | 25° |
| 2026-05-07 12:50 | 24.97459 | 46.70149 | 2027 ft | 14 kts | 60° |
| 2026-05-07 12:51 | 24.97512 | 46.70249 | 2020 ft | 17 kts | 59° |
| 2026-05-07 12:51 | 24.97481 | 46.70333 | 2025 ft | 14 kts | 152° |
| 2026-05-07 12:51 | 24.97361 | 46.70409 | 2020 ft | 39 kts | 150° |
| 2026-05-07 12:51 | 24.96917 | 46.70690 | 2029 ft | 106 kts | 150° |
| 2026-05-07 12:52 | 24.96099 | 46.71206 | 2027 ft | 162 kts | 150° |
| 2026-05-07 12:52 | 24.95022 | 46.71878 | 2410 ft | 182 kts | 148° |
| 2026-05-07 12:52 | 24.93924 | 46.72476 | 3453 ft | 168 kts | 155° |
| 2026-05-07 12:52 | 24.92847 | 46.72832 | 4275 ft | 160 kts | 167° |
| 2026-05-07 12:53 | 24.91674 | 46.72910 | 4674 ft | 182 kts | 180° |
| 2026-05-07 12:53 | 24.90353 | 46.72679 | 5126 ft | 196 kts | 185° |
| 2026-05-07 12:53 | 24.88985 | 46.72882 | 5395 ft | 211 kts | 149° |
| 2026-05-07 12:53 | 24.87898 | 46.74058 | 5618 ft | 230 kts | 130° |
| 2026-05-07 12:54 | 24.86868 | 46.75472 | 5962 ft | 243 kts | 131° |
| 2026-05-07 12:54 | 24.85747 | 46.76966 | 6138 ft | 263 kts | 133° |
| 2026-05-07 12:54 | 24.84522 | 46.78522 | 6648 ft | 272 kts | 134° |
| 2026-05-07 12:54 | 24.83253 | 46.80073 | 7379 ft | 272 kts | 135° |
| 2026-05-07 12:55 | 24.81951 | 46.81613 | 8048 ft | 277 kts | 136° |
| 2026-05-07 12:55 | 24.80608 | 46.83162 | 8727 ft | 282 kts | 137° |
| 2026-05-07 12:55 | 24.79234 | 46.84714 | 9454 ft | 285 kts | 137° |
| 2026-05-07 12:55 | 24.77833 | 46.86273 | 10143 ft | 288 kts | 138° |
| 2026-05-07 12:56 | 24.76379 | 46.87872 | 10484 ft | 306 kts | 138° |
| 2026-05-07 12:56 | 24.74809 | 46.89580 | 10646 ft | 329 kts | 138° |
| 2026-05-07 12:56 | 24.73127 | 46.91403 | 10791 ft | 349 kts | 138° |
| 2026-05-07 12:56 | 24.71353 | 46.93317 | 11006 ft | 365 kts | 138° |
| 2026-05-07 12:57 | 24.69547 | 46.95265 | 11435 ft | 372 kts | 138° |
| 2026-05-07 12:57 | 24.67665 | 46.97294 | 11998 ft | 376 kts | 138° |
| 2026-05-07 12:57 | 24.65812 | 46.99287 | 12534 ft | 380 kts | 138° |
| 2026-05-07 12:57 | 24.63915 | 47.01323 | 13087 ft | 384 kts | 139° |
| 2026-05-07 12:58 | 24.61994 | 47.03383 | 13631 ft | 388 kts | 138° |
| 2026-05-07 12:58 | 24.60055 | 47.05460 | 14131 ft | 392 kts | 138° |
| 2026-05-07 12:58 | 24.58090 | 47.07565 | 14594 ft | 396 kts | 138° |
| 2026-05-07 12:58 | 24.56107 | 47.09687 | 15070 ft | 400 kts | 138° |
| 2026-05-07 12:59 | 24.54102 | 47.11831 | 15575 ft | 403 kts | 138° |
| 2026-05-07 12:59 | 24.52082 | 47.13990 | 16060 ft | 407 kts | 138° |
| 2026-05-07 12:59 | 24.50045 | 47.16165 | 16543 ft | 410 kts | 138° |
| 2026-05-07 12:59 | 24.47993 | 47.18356 | 17036 ft | 413 kts | 138° |
| 2026-05-07 13:00 | 24.45927 | 47.20561 | 17519 ft | 416 kts | 138° |
| 2026-05-07 13:00 | 24.43843 | 47.22785 | 18008 ft | 419 kts | 138° |
| 2026-05-07 13:00 | 24.41748 | 47.25018 | 18454 ft | 422 kts | 138° |
| 2026-05-07 13:00 | 24.39647 | 47.27258 | 18887 ft | 423 kts | 138° |
| 2026-05-07 13:01 | 24.37527 | 47.29516 | 19328 ft | 425 kts | 138° |
| 2026-05-07 13:01 | 24.35402 | 47.31778 | 19743 ft | 427 kts | 138° |
| 2026-05-07 13:01 | 24.33265 | 47.34052 | 20144 ft | 429 kts | 138° |
| 2026-05-07 13:01 | 24.31118 | 47.36336 | 20533 ft | 432 kts | 138° |
| 2026-05-07 13:02 | 24.28956 | 47.38633 | 20907 ft | 435 kts | 138° |
| 2026-05-07 13:02 | 24.26778 | 47.40947 | 21270 ft | 437 kts | 138° |
| 2026-05-07 13:02 | 24.24588 | 47.43272 | 21625 ft | 440 kts | 138° |
| 2026-05-07 13:02 | 24.22381 | 47.45615 | 21974 ft | 443 kts | 138° |
| 2026-05-07 13:03 | 24.20158 | 47.47972 | 22309 ft | 446 kts | 138° |
| 2026-05-07 13:03 | 24.17924 | 47.50342 | 22648 ft | 449 kts | 138° |
| 2026-05-07 13:03 | 24.15673 | 47.52727 | 22977 ft | 451 kts | 138° |
| 2026-05-07 13:03 | 24.13409 | 47.55125 | 23298 ft | 454 kts | 138° |
| 2026-05-07 13:04 | 24.11132 | 47.57536 | 23602 ft | 456 kts | 138° |
| 2026-05-07 13:04 | 24.08842 | 47.59958 | 23861 ft | 458 kts | 138° |
| 2026-05-07 13:04 | 24.06546 | 47.62387 | 24151 ft | 460 kts | 138° |
| 2026-05-07 13:04 | 24.04244 | 47.64819 | 24410 ft | 461 kts | 139° |
| 2026-05-07 13:05 | 24.01928 | 47.67266 | 24652 ft | 464 kts | 139° |
| 2026-05-07 13:05 | 23.99605 | 47.69718 | 24898 ft | 465 kts | 139° |
| 2026-05-07 13:05 | 23.97273 | 47.72179 | 25154 ft | 467 kts | 139° |
| 2026-05-07 13:05 | 23.94934 | 47.74647 | 25404 ft | 468 kts | 139° |
| 2026-05-07 13:06 | 23.92579 | 47.77128 | 25638 ft | 470 kts | 139° |
| 2026-05-07 13:06 | 23.90223 | 47.79612 | 25856 ft | 472 kts | 139° |
| 2026-05-07 13:06 | 23.87851 | 47.82109 | 26078 ft | 474 kts | 139° |
| 2026-05-07 13:06 | 23.85508 | 47.84575 | 26288 ft | 475 kts | 139° |
| 2026-05-07 13:07 | 23.83124 | 47.87082 | 26496 ft | 477 kts | 140° |
| 2026-05-07 13:07 | 23.80731 | 47.89599 | 26712 ft | 478 kts | 140° |
| 2026-05-07 13:07 | 23.78329 | 47.92123 | 26933 ft | 480 kts | 140° |
| 2026-05-07 13:07 | 23.75920 | 47.94653 | 27134 ft | 481 kts | 140° |
| 2026-05-07 13:08 | 23.73502 | 47.97191 | 27328 ft | 483 kts | 140° |
| 2026-05-07 13:08 | 23.71080 | 47.99732 | 27514 ft | 484 kts | 140° |
| 2026-05-07 13:08 | 23.68648 | 48.02282 | 27703 ft | 486 kts | 140° |
| 2026-05-07 13:08 | 23.66205 | 48.04842 | 27876 ft | 487 kts | 140° |
| 2026-05-07 13:09 | 23.63757 | 48.07407 | 28065 ft | 488 kts | 140° |
| 2026-05-07 13:09 | 23.61303 | 48.09975 | 28241 ft | 490 kts | 140° |
| 2026-05-07 13:09 | 23.58844 | 48.12549 | 28422 ft | 491 kts | 140° |
| 2026-05-07 13:09 | 23.56383 | 48.15123 | 28662 ft | 490 kts | 140° |
| 2026-05-07 13:10 | 23.53921 | 48.17697 | 28939 ft | 489 kts | 140° |
| 2026-05-07 13:10 | 23.51468 | 48.20260 | 29213 ft | 488 kts | 141° |
| 2026-05-07 13:10 | 23.49017 | 48.22819 | 29461 ft | 488 kts | 141° |
| 2026-05-07 13:10 | 23.46565 | 48.25379 | 29690 ft | 488 kts | 141° |
| 2026-05-07 13:11 | 23.44112 | 48.27937 | 29937 ft | 488 kts | 141° |
| 2026-05-07 13:11 | 23.41663 | 48.30491 | 30175 ft | 487 kts | 141° |
| 2026-05-07 13:11 | 23.39230 | 48.33055 | 30394 ft | 488 kts | 138° |
| 2026-05-07 13:11 | 23.37024 | 48.35883 | 30597 ft | 494 kts | 129° |
| 2026-05-07 13:12 | 23.35139 | 48.39018 | 30830 ft | 495 kts | 127° |
| 2026-05-07 13:12 | 23.33321 | 48.42196 | 31067 ft | 495 kts | 126° |
| 2026-05-07 13:12 | 23.31514 | 48.45385 | 31287 ft | 495 kts | 126° |
| 2026-05-07 13:12 | 23.29700 | 48.48567 | 31524 ft | 494 kts | 126° |
| 2026-05-07 13:13 | 23.27877 | 48.51731 | 31765 ft | 494 kts | 127° |
| 2026-05-07 13:13 | 23.26042 | 48.54887 | 32007 ft | 493 kts | 127° |
| 2026-05-07 13:13 | 23.24203 | 48.58030 | 32256 ft | 492 kts | 127° |
| 2026-05-07 13:13 | 23.22363 | 48.61163 | 32499 ft | 492 kts | 127° |
| 2026-05-07 13:14 | 23.20522 | 48.64295 | 32735 ft | 491 kts | 127° |
| 2026-05-07 13:14 | 23.18683 | 48.67422 | 32989 ft | 491 kts | 127° |
| 2026-05-07 13:14 | 23.16846 | 48.70544 | 33253 ft | 490 kts | 127° |
| 2026-05-07 13:14 | 23.15011 | 48.73664 | 33511 ft | 489 kts | 127° |
| 2026-05-07 13:15 | 23.13205 | 48.76735 | 33748 ft | 488 kts | 127° |
| 2026-05-07 13:15 | 23.11372 | 48.79847 | 33770 ft | 491 kts | 127° |
| 2026-05-07 13:15 | 23.07694 | 48.86090 | 33787 ft | 490 kts | 127° |
| 2026-05-07 13:16 | 23.04032 | 48.92302 | 33785 ft | 488 kts | 127° |
| 2026-05-07 13:16 | 23.00711 | 48.98742 | 33773 ft | 495 kts | 115° |
| 2026-05-07 13:17 | 22.99085 | 49.06045 | 33769 ft | 504 kts | 97° |
| 2026-05-07 13:17 | 22.98685 | 49.13642 | 33774 ft | 505 kts | 95° |
| 2026-05-07 13:18 | 22.98361 | 49.21258 | 33774 ft | 505 kts | 95° |
| 2026-05-07 13:18 | 22.97982 | 49.28873 | 33772 ft | 505 kts | 96° |
| 2026-05-07 13:19 | 22.97560 | 49.36483 | 33774 ft | 505 kts | 96° |
| 2026-05-07 13:19 | 22.97123 | 49.44091 | 33771 ft | 505 kts | 96° |
| 2026-05-07 13:20 | 22.96685 | 49.51698 | 33770 ft | 505 kts | 96° |
| 2026-05-07 13:20 | 22.96245 | 49.59303 | 33770 ft | 505 kts | 96° |
| 2026-05-07 13:21 | 22.95804 | 49.66901 | 33785 ft | 504 kts | 96° |
| 2026-05-07 13:21 | 22.95359 | 49.74493 | 33769 ft | 504 kts | 96° |
| 2026-05-07 13:22 | 22.94911 | 49.82076 | 33768 ft | 504 kts | 96° |
| 2026-05-07 13:22 | 22.94459 | 49.89652 | 33766 ft | 503 kts | 96° |
| 2026-05-07 13:23 | 22.94004 | 49.97229 | 33769 ft | 503 kts | 96° |
| 2026-05-07 13:23 | 22.93546 | 50.04796 | 33765 ft | 503 kts | 96° |
| 2026-05-07 13:24 | 22.93084 | 50.12358 | 33765 ft | 502 kts | 96° |
| 2026-05-07 13:24 | 22.92619 | 50.19919 | 33770 ft | 502 kts | 96° |
| 2026-05-07 13:25 | 22.92154 | 50.27422 | 33766 ft | 502 kts | 96° |
| 2026-05-07 13:25 | 22.91683 | 50.34971 | 33776 ft | 502 kts | 96° |
| 2026-05-07 13:26 | 22.91208 | 50.42519 | 33778 ft | 502 kts | 96° |
| 2026-05-07 13:26 | 22.90729 | 50.50069 | 33763 ft | 501 kts | 96° |
| 2026-05-07 13:27 | 22.90247 | 50.57614 | 33762 ft | 501 kts | 96° |
| 2026-05-07 13:27 | 22.89762 | 50.65152 | 33763 ft | 501 kts | 96° |
| 2026-05-07 13:28 | 22.89273 | 50.72689 | 33762 ft | 501 kts | 96° |
| 2026-05-07 13:28 | 22.88781 | 50.80223 | 33757 ft | 500 kts | 96° |
| 2026-05-07 13:29 | 22.88286 | 50.87748 | 33764 ft | 500 kts | 96° |
| 2026-05-07 13:29 | 22.87788 | 50.95264 | 33757 ft | 500 kts | 95° |
| 2026-05-07 13:30 | 22.87287 | 51.02780 | 33760 ft | 499 kts | 95° |
| 2026-05-07 13:30 | 22.86783 | 51.10287 | 33759 ft | 499 kts | 95° |
| 2026-05-07 13:31 | 22.86275 | 51.17786 | 33765 ft | 499 kts | 95° |
| 2026-05-07 13:31 | 22.85766 | 51.25228 | 33764 ft | 498 kts | 95° |
| 2026-05-07 13:32 | 22.85252 | 51.32716 | 33756 ft | 498 kts | 95° |
| 2026-05-07 13:32 | 22.84734 | 51.40204 | 33759 ft | 498 kts | 95° |
| 2026-05-07 13:33 | 22.84945 | 51.47698 | 33762 ft | 499 kts | 81° |
| 2026-05-07 13:33 | 22.86902 | 51.54904 | 33761 ft | 499 kts | 70° |
| 2026-05-07 13:34 | 22.90473 | 51.65527 | 33760 ft | 500 kts | 70° |
| 2026-05-07 13:35 | 22.92409 | 51.71428 | 33757 ft | 500 kts | 70° |
| 2026-05-07 13:35 | 22.94705 | 51.78550 | 33749 ft | 500 kts | 70° |
| 2026-05-07 13:36 | 22.96985 | 51.85663 | 33759 ft | 499 kts | 70° |
| 2026-05-07 13:36 | 22.99267 | 51.92785 | 33757 ft | 500 kts | 70° |
| 2026-05-07 13:37 | 23.01548 | 51.99910 | 33761 ft | 500 kts | 70° |
| 2026-05-07 13:37 | 23.03825 | 52.07033 | 33761 ft | 500 kts | 70° |
| 2026-05-07 13:38 | 23.06103 | 52.14173 | 33758 ft | 501 kts | 70° |
| 2026-05-07 13:38 | 23.08378 | 52.21315 | 33754 ft | 500 kts | 71° |
| 2026-05-07 13:39 | 23.10647 | 52.28450 | 33759 ft | 500 kts | 71° |
| 2026-05-07 13:39 | 23.12912 | 52.35588 | 33757 ft | 499 kts | 71° |
| 2026-05-07 13:40 | 23.15171 | 52.42715 | 33761 ft | 499 kts | 71° |
| 2026-05-07 13:40 | 23.17430 | 52.49846 | 33762 ft | 499 kts | 71° |
| 2026-05-07 13:41 | 23.19433 | 52.57069 | 33767 ft | 500 kts | 75° |
| 2026-05-07 13:41 | 23.21124 | 52.64392 | 33760 ft | 500 kts | 76° |
| 2026-05-07 13:42 | 23.22786 | 52.71721 | 33757 ft | 499 kts | 76° |
| 2026-05-07 13:42 | 23.24585 | 52.79000 | 33767 ft | 499 kts | 73° |
| 2026-05-07 13:43 | 23.26691 | 52.86191 | 33764 ft | 500 kts | 71° |
| 2026-05-07 13:43 | 23.28836 | 52.93375 | 33765 ft | 499 kts | 72° |
| 2026-05-07 13:44 | 23.30934 | 53.00565 | 33767 ft | 499 kts | 72° |
| 2026-05-07 13:44 | 23.33004 | 53.07772 | 33771 ft | 499 kts | 72° |
| 2026-05-07 13:45 | 23.35066 | 53.14992 | 33769 ft | 500 kts | 72° |
| 2026-05-07 13:45 | 23.37126 | 53.22214 | 33766 ft | 500 kts | 72° |
| 2026-05-07 13:46 | 23.39184 | 53.29434 | 33770 ft | 499 kts | 72° |
| 2026-05-07 13:46 | 23.41238 | 53.36656 | 33774 ft | 500 kts | 72° |
| 2026-05-07 13:47 | 23.43291 | 53.43885 | 33769 ft | 500 kts | 72° |
| 2026-05-07 13:47 | 23.45329 | 53.51073 | 33767 ft | 499 kts | 72° |
| 2026-05-07 13:48 | 23.47370 | 53.58289 | 33765 ft | 498 kts | 72° |
| 2026-05-07 13:48 | 23.49411 | 53.65517 | 33772 ft | 500 kts | 72° |
| 2026-05-07 13:49 | 23.51456 | 53.72773 | 33767 ft | 502 kts | 72° |
| 2026-05-07 13:49 | 23.53501 | 53.80045 | 33772 ft | 502 kts | 72° |
| 2026-05-07 13:50 | 23.55537 | 53.87301 | 33761 ft | 499 kts | 72° |
| 2026-05-07 13:50 | 23.57558 | 53.94514 | 33763 ft | 497 kts | 72° |
| 2026-05-07 13:51 | 23.59568 | 54.01703 | 33772 ft | 495 kts | 72° |
| 2026-05-07 13:51 | 23.61570 | 54.08878 | 33773 ft | 494 kts | 72° |
| 2026-05-07 13:52 | 23.63568 | 54.16052 | 33769 ft | 495 kts | 73° |
| 2026-05-07 13:52 | 23.65573 | 54.23265 | 33780 ft | 500 kts | 72° |
| 2026-05-07 13:53 | 23.67570 | 54.30463 | 33766 ft | 503 kts | 73° |
| 2026-05-07 13:53 | 23.69617 | 54.37860 | 33772 ft | 503 kts | 73° |
| 2026-05-07 13:54 | 23.71638 | 54.45172 | 33765 ft | 503 kts | 73° |
| 2026-05-07 13:54 | 23.73650 | 54.52472 | 33771 ft | 502 kts | 73° |
| 2026-05-07 13:55 | 23.75656 | 54.59760 | 33768 ft | 501 kts | 73° |
| 2026-05-07 13:55 | 23.77655 | 54.67041 | 33766 ft | 500 kts | 73° |
| 2026-05-07 13:56 | 23.79649 | 54.74314 | 33773 ft | 500 kts | 73° |
| 2026-05-07 13:56 | 23.81636 | 54.81579 | 33774 ft | 499 kts | 73° |
| 2026-05-07 13:57 | 23.83618 | 54.88840 | 33777 ft | 499 kts | 73° |
| 2026-05-07 13:57 | 23.85599 | 54.96113 | 33790 ft | 501 kts | 73° |
| 2026-05-07 13:58 | 23.87585 | 55.03418 | 33453 ft | 505 kts | 73° |
| 2026-05-07 13:58 | 23.88585 | 55.07100 | 33014 ft | 503 kts | 73° |
| 2026-05-07 13:58 | 23.89574 | 55.10749 | 32595 ft | 501 kts | 73° |
| 2026-05-07 13:58 | 23.90551 | 55.14356 | 32189 ft | 502 kts | 73° |
| 2026-05-07 13:59 | 23.91539 | 55.18009 | 31804 ft | 503 kts | 73° |
| 2026-05-07 13:59 | 23.92534 | 55.21688 | 31455 ft | 504 kts | 73° |
| 2026-05-07 13:59 | 23.93528 | 55.25368 | 31005 ft | 506 kts | 73° |
| 2026-05-07 13:59 | 23.94522 | 55.29055 | 30548 ft | 507 kts | 73° |
| 2026-05-07 14:00 | 23.95518 | 55.32751 | 30096 ft | 507 kts | 73° |
| 2026-05-07 14:00 | 23.96515 | 55.36456 | 29611 ft | 507 kts | 73° |
| 2026-05-07 14:00 | 23.97507 | 55.40144 | 29083 ft | 506 kts | 73° |
| 2026-05-07 14:00 | 23.98500 | 55.43838 | 28517 ft | 506 kts | 73° |
| 2026-05-07 14:01 | 23.99503 | 55.47522 | 27984 ft | 504 kts | 71° |
| 2026-05-07 14:01 | 24.00862 | 55.51041 | 27457 ft | 503 kts | 61° |
| 2026-05-07 14:01 | 24.02688 | 55.54272 | 26942 ft | 494 kts | 53° |
| 2026-05-07 14:01 | 24.04859 | 55.57147 | 26431 ft | 487 kts | 44° |
| 2026-05-07 14:02 | 24.07332 | 55.59641 | 25924 ft | 481 kts | 40° |
| 2026-05-07 14:02 | 24.09834 | 55.62055 | 25411 ft | 477 kts | 40° |
| 2026-05-07 14:02 | 24.12315 | 55.64444 | 24913 ft | 473 kts | 40° |
| 2026-05-07 14:02 | 24.14766 | 55.66825 | 24413 ft | 469 kts | 41° |
| 2026-05-07 14:03 | 24.17187 | 55.69199 | 23929 ft | 465 kts | 41° |
| 2026-05-07 14:03 | 24.19572 | 55.71557 | 23452 ft | 460 kts | 41° |
| 2026-05-07 14:03 | 24.21929 | 55.73896 | 22873 ft | 454 kts | 41° |
| 2026-05-07 14:03 | 24.24254 | 55.76209 | 22282 ft | 450 kts | 42° |
| 2026-05-07 14:04 | 24.26563 | 55.78506 | 21707 ft | 446 kts | 42° |
| 2026-05-07 14:04 | 24.28848 | 55.80780 | 21138 ft | 441 kts | 42° |
| 2026-05-07 14:04 | 24.31111 | 55.83032 | 20586 ft | 437 kts | 42° |
| 2026-05-07 14:04 | 24.33349 | 55.85260 | 20053 ft | 432 kts | 42° |
| 2026-05-07 14:05 | 24.35563 | 55.87464 | 19550 ft | 428 kts | 42° |
| 2026-05-07 14:05 | 24.37757 | 55.89649 | 19037 ft | 424 kts | 42° |
| 2026-05-07 14:05 | 24.39932 | 55.91817 | 18549 ft | 421 kts | 42° |
| 2026-05-07 14:05 | 24.42204 | 55.93809 | 18004 ft | 417 kts | 29° |
| 2026-05-07 14:06 | 24.44900 | 55.94803 | 17388 ft | 405 kts | 7° |
| 2026-05-07 14:06 | 24.47665 | 55.94807 | 16799 ft | 393 kts | 353° |
| 2026-05-07 14:06 | 24.50271 | 55.94092 | 16218 ft | 383 kts | 339° |
| 2026-05-07 14:06 | 24.52683 | 55.92929 | 15652 ft | 374 kts | 336° |
| 2026-05-07 14:07 | 24.55026 | 55.91721 | 15045 ft | 370 kts | 335° |
| 2026-05-07 14:07 | 24.57335 | 55.90513 | 14470 ft | 367 kts | 335° |
| 2026-05-07 14:07 | 24.59631 | 55.89316 | 13904 ft | 363 kts | 335° |
| 2026-05-07 14:07 | 24.61908 | 55.88140 | 13303 ft | 361 kts | 335° |
| 2026-05-07 14:08 | 24.63943 | 55.87096 | 12743 ft | 360 kts | 335° |
| 2026-05-07 14:08 | 24.66159 | 55.85966 | 12161 ft | 356 kts | 335° |
| 2026-05-07 14:08 | 24.68389 | 55.84832 | 11612 ft | 350 kts | 335° |
| 2026-05-07 14:08 | 24.70617 | 55.83701 | 11102 ft | 354 kts | 335° |
| 2026-05-07 14:09 | 24.72864 | 55.82561 | 10595 ft | 357 kts | 334° |
| 2026-05-07 14:09 | 24.75094 | 55.81430 | 10251 ft | 344 kts | 334° |
| 2026-05-07 14:09 | 24.77211 | 55.80357 | 10051 ft | 328 kts | 334° |
| 2026-05-07 14:09 | 24.79249 | 55.79325 | 9746 ft | 317 kts | 333° |
| 2026-05-07 14:10 | 24.81221 | 55.78324 | 9418 ft | 308 kts | 333° |
| 2026-05-07 14:10 | 24.83143 | 55.77346 | 9095 ft | 300 kts | 333° |
| 2026-05-07 14:10 | 24.85020 | 55.76392 | 8774 ft | 295 kts | 333° |
| 2026-05-07 14:10 | 24.86891 | 55.75441 | 8426 ft | 299 kts | 333° |
| 2026-05-07 14:11 | 24.88738 | 55.74501 | 7932 ft | 299 kts | 333° |
| 2026-05-07 14:11 | 24.90645 | 55.73530 | 7405 ft | 299 kts | 333° |
| 2026-05-07 14:11 | 24.92563 | 55.72552 | 6895 ft | 300 kts | 333° |
| 2026-05-07 14:11 | 24.93813 | 55.71916 | 6584 ft | 299 kts | 333° |
| 2026-05-07 14:12 | 24.95495 | 55.71059 | 6225 ft | 296 kts | 334° |
| 2026-05-07 14:12 | 24.97318 | 55.70132 | 6092 ft | 281 kts | 334° |
| 2026-05-07 14:12 | 24.99048 | 55.69252 | 6003 ft | 266 kts | 334° |
| 2026-05-07 14:13 | 25.00639 | 55.68442 | 5997 ft | 250 kts | 334° |
| 2026-05-07 14:13 | 25.02212 | 55.67639 | 6003 ft | 243 kts | 334° |
| 2026-05-07 14:13 | 25.03765 | 55.66847 | 5724 ft | 252 kts | 334° |
| 2026-05-07 14:13 | 25.05355 | 55.66034 | 5467 ft | 252 kts | 334° |
| 2026-05-07 14:14 | 25.06952 | 55.65220 | 5089 ft | 252 kts | 333° |
| 2026-05-07 14:14 | 25.08537 | 55.64412 | 4754 ft | 250 kts | 333° |
| 2026-05-07 14:14 | 25.09990 | 55.63444 | 4471 ft | 239 kts | 310° |
| 2026-05-07 14:14 | 25.10986 | 55.62073 | 4396 ft | 227 kts | 305° |
| 2026-05-07 14:15 | 25.11883 | 55.60681 | 4157 ft | 218 kts | 302° |
| 2026-05-07 14:15 | 25.12689 | 55.59287 | 3878 ft | 211 kts | 300° |
| 2026-05-07 14:15 | 25.13442 | 55.57933 | 3607 ft | 203 kts | 299° |
| 2026-05-07 14:15 | 25.14149 | 55.56649 | 3374 ft | 188 kts | 298° |
| 2026-05-07 14:16 | 25.14805 | 55.55454 | 3158 ft | 177 kts | 299° |
| 2026-05-07 14:16 | 25.15449 | 55.54281 | 2981 ft | 185 kts | 298° |
| 2026-05-07 14:16 | 25.16125 | 55.53047 | 2718 ft | 187 kts | 298° |
| 2026-05-07 14:16 | 25.16784 | 55.51851 | 2475 ft | 177 kts | 299° |
| 2026-05-07 14:17 | 25.17400 | 55.50734 | 2252 ft | 162 kts | 298° |
| 2026-05-07 14:17 | 25.17990 | 55.49662 | 2063 ft | 164 kts | 298° |
| 2026-05-07 14:17 | 25.18556 | 55.48634 | 1844 ft | 157 kts | 298° |
| 2026-05-07 14:17 | 25.19088 | 55.47665 | 1652 ft | 149 kts | 298° |
| 2026-05-07 14:18 | 25.19622 | 55.46695 | 1479 ft | 149 kts | 298° |
| 2026-05-07 14:18 | 25.20159 | 55.45721 | 1289 ft | 148 kts | 298° |
| 2026-05-07 14:18 | 25.20662 | 55.44808 | 1107 ft | 145 kts | 298° |
| 2026-05-07 14:18 | 25.21180 | 55.43865 | 944 ft | 150 kts | 300° |
| 2026-05-07 14:19 | 25.21548 | 55.43198 | 843 ft | 151 kts | 299° |
| 2026-05-07 14:19 | 25.22277 | 55.41873 | 589 ft | 152 kts | 300° |
| 2026-05-07 14:19 | 25.22827 | 55.40866 | 397 ft | 154 kts | 300° |
| 2026-05-07 14:19 | 25.23376 | 55.39879 | 189 ft | 148 kts | 301° |
| 2026-05-07 14:20 | 25.23901 | 55.38933 | 63 ft | 137 kts | 301° |
| 2026-05-07 14:20 | 25.24214 | 55.38372 | 52 ft | 112 kts | 302° |
| 2026-05-07 14:20 | 25.24517 | 55.37827 | 40 ft | 49 kts | 301° |
| 2026-05-07 14:20 | 25.24683 | 55.37531 | 33 ft | 45 kts | 302° |
| 2026-05-07 14:21 | 25.24783 | 55.37221 | 28 ft | 21 kts | 265° |
| 2026-05-07 14:21 | 25.24780 | 55.37122 | 26 ft | 19 kts | 280° |
| 2026-05-07 14:21 | 25.24797 | 55.36986 | 26 ft | 16 kts | 282° |
| 2026-05-07 14:21 | 25.24837 | 55.36886 | 25 ft | 14 kts | 294° |
| 2026-05-07 14:22 | 25.24869 | 55.36758 | 22 ft | 12 kts | 281° |
| 2026-05-07 14:22 | 25.24885 | 55.36699 | 23 ft | 12 kts | 293° |
| 2026-05-07 14:22 | 25.24920 | 55.36618 | 22 ft | 12 kts | 299° |
| 2026-05-07 14:22 | 25.24964 | 55.36541 | 21 ft | 13 kts | 302° |
| 2026-05-07 14:23 | 25.25010 | 55.36458 | 23 ft | 12 kts | 300° |
| 2026-05-07 14:23 | 25.25053 | 55.36376 | 21 ft | 12 kts | 300° |
| 2026-05-07 14:23 | 25.25096 | 55.36302 | 21 ft | 11 kts | 303° |
| 2026-05-07 14:23 | 25.25134 | 55.36231 | 21 ft | 11 kts | 299° |
| 2026-05-07 14:24 | 25.25172 | 55.36163 | 22 ft | 10 kts | 302° |
| 2026-05-07 14:24 | 25.25209 | 55.36097 | 21 ft | 10 kts | 301° |
| 2026-05-07 14:24 | 25.25246 | 55.36029 | 21 ft | 10 kts | 301° |
| 2026-05-07 14:24 | 25.25282 | 55.35964 | 21 ft | 10 kts | 301° |
| 2026-05-07 14:25 | 25.25317 | 55.35900 | 21 ft | 10 kts | 301° |
| 2026-05-07 14:25 | 25.25351 | 55.35839 | 21 ft | 9 kts | 301° |
| 2026-05-07 14:25 | 25.25387 | 55.35774 | 23 ft | 10 kts | 302° |
| 2026-05-07 14:25 | 25.25427 | 55.35704 | 21 ft | 11 kts | 302° |
| 2026-05-07 14:26 | 25.25462 | 55.35621 | 20 ft | 13 kts | 286° |
| 2026-05-07 14:26 | 25.25474 | 55.35518 | 20 ft | 15 kts | 269° |
| 2026-05-07 14:26 | 25.25494 | 55.35401 | 21 ft | 17 kts | 298° |
| 2026-05-07 14:26 | 25.25556 | 55.35283 | 20 ft | 18 kts | 301° |
| 2026-05-07 14:27 | 25.25610 | 55.35186 | 20 ft | 12 kts | 302° |
| 2026-05-07 14:27 | 25.25655 | 55.35105 | 20 ft | 12 kts | 299° |
| 2026-05-07 14:27 | 25.25697 | 55.35025 | 20 ft | 12 kts | 300° |
| 2026-05-07 14:27 | 25.25737 | 55.34950 | 20 ft | 11 kts | 301° |
| 2026-05-07 14:28 | 25.25777 | 55.34878 | 21 ft | 11 kts | 301° |
| 2026-05-07 14:28 | 25.25805 | 55.34809 | 19 ft | 9 kts | 249° |
| 2026-05-07 14:28 | 25.25766 | 55.34775 | 19 ft | 6 kts | 211° |
| 2026-05-07 14:28 | 25.25736 | 55.34755 | 21 ft | 2 kts | 211° |
| 2026-05-07 14:29 | 25.25729 | 55.34750 | 20 ft | 0 kts | 211° |